sensor_id;sensor_type;location;lat;lon;timestamp;P1;durP1;ratioP1;P2;durP2;ratioP2
30000;SDS011;16845;48.670;9.000;2023-11-21T00:02:00;11.77;;;3.67;;
30000;SDS011;16845;48.670;9.000;2023-11-21T00:04:28;9.37;;;2.93;;
30000;SDS011;16845;48.670;9.000;2023-11-21T00:06:54;12.43;;;4.40;;
30000;SDS011;16845;48.670;9.000;2023-11-21T00:09:21;13.07;;;2.93;;
30000;SDS011;16845;48.670;9.000;2023-11-21T00:11:48;15.55;;;3.40;;
30000;SDS011;16845;48.670;9.000;2023-11-21T00:14:14;9.97;;;2.80;;
30000;SDS011;16845;48.670;9.000;2023-11-21T00:16:41;10.07;;;3.45;;
30000;SDS011;16845;48.670;9.000;2023-11-21T00:19:07;10.27;;;3.25;;
30000;SDS011;16845;48.670;9.000;2023-11-21T00:21:35;6.43;;;3.00;;
30000;SDS011;16845;48.670;9.000;2023-11-21T00:24:02;10.38;;;3.08;;
30000;SDS011;16845;48.670;9.000;2023-11-21T00:26:29;14.03;;;2.87;;
30000;SDS011;16845;48.670;9.000;2023-11-21T00:28:55;7.32;;;2.65;;
30000;SDS011;16845;48.670;9.000;2023-11-21T00:31:22;10.05;;;3.08;;
30000;SDS011;16845;48.670;9.000;2023-11-21T00:33:48;15.27;;;3.42;;
30000;SDS011;16845;48.670;9.000;2023-11-21T00:36:15;13.60;;;3.30;;
30000;SDS011;16845;48.670;9.000;2023-11-21T00:38:43;9.83;;;3.00;;
30000;SDS011;16845;48.670;9.000;2023-11-21T00:41:09;14.93;;;3.05;;
30000;SDS011;16845;48.670;9.000;2023-11-21T00:43:36;10.30;;;2.80;;
30000;SDS011;16845;48.670;9.000;2023-11-21T00:46:03;8.33;;;2.80;;
30000;SDS011;16845;48.670;9.000;2023-11-21T00:48:30;15.93;;;3.25;;
30000;SDS011;16845;48.670;9.000;2023-11-21T00:50:57;8.60;;;3.33;;
30000;SDS011;16845;48.670;9.000;2023-11-21T00:53:23;11.73;;;2.70;;
30000;SDS011;16845;48.670;9.000;2023-11-21T00:55:51;14.25;;;2.97;;
30000;SDS011;16845;48.670;9.000;2023-11-21T00:58:18;7.05;;;3.05;;
30000;SDS011;16845;48.670;9.000;2023-11-21T01:00:44;7.78;;;2.67;;
30000;SDS011;16845;48.670;9.000;2023-11-21T01:03:11;10.90;;;2.23;;
30000;SDS011;16845;48.670;9.000;2023-11-21T01:05:38;6.33;;;2.47;;
30000;SDS011;16845;48.670;9.000;2023-11-21T01:08:04;5.20;;;2.38;;
30000;SDS011;16845;48.670;9.000;2023-11-21T01:10:31;9.80;;;2.40;;
30000;SDS011;16845;48.670;9.000;2023-11-21T01:12:58;9.50;;;3.17;;
30000;SDS011;16845;48.670;9.000;2023-11-21T01:15:25;6.95;;;1.92;;
30000;SDS011;16845;48.670;9.000;2023-11-21T01:17:51;9.07;;;2.53;;
30000;SDS011;16845;48.670;9.000;2023-11-21T01:20:18;6.77;;;2.17;;
30000;SDS011;16845;48.670;9.000;2023-11-21T01:22:45;10.07;;;2.92;;
30000;SDS011;16845;48.670;9.000;2023-11-21T01:25:11;5.27;;;2.17;;
30000;SDS011;16845;48.670;9.000;2023-11-21T01:27:38;5.45;;;2.00;;
30000;SDS011;16845;48.670;9.000;2023-11-21T01:30:07;15.30;;;4.00;;
30000;SDS011;16845;48.670;9.000;2023-11-21T01:32:34;5.78;;;2.30;;
30000;SDS011;16845;48.670;9.000;2023-11-21T01:35:00;6.53;;;3.00;;
30000;SDS011;16845;48.670;9.000;2023-11-21T01:37:27;7.60;;;2.77;;
30000;SDS011;16845;48.670;9.000;2023-11-21T01:39:53;5.47;;;2.05;;
30000;SDS011;16845;48.670;9.000;2023-11-21T01:42:20;7.83;;;2.23;;
30000;SDS011;16845;48.670;9.000;2023-11-21T01:44:46;7.38;;;1.98;;
30000;SDS011;16845;48.670;9.000;2023-11-21T01:47:14;3.15;;;1.60;;
30000;SDS011;16845;48.670;9.000;2023-11-21T01:49:43;11.43;;;1.92;;
30000;SDS011;16845;48.670;9.000;2023-11-21T01:52:10;9.93;;;2.30;;
30000;SDS011;16845;48.670;9.000;2023-11-21T01:57:04;4.88;;;2.13;;
30000;SDS011;16845;48.670;9.000;2023-11-21T01:59:33;4.78;;;2.30;;
30000;SDS011;16845;48.670;9.000;2023-11-21T02:02:01;4.70;;;1.77;;
30000;SDS011;16845;48.670;9.000;2023-11-21T02:04:29;4.85;;;1.60;;
30000;SDS011;16845;48.670;9.000;2023-11-21T02:06:55;10.73;;;2.38;;
30000;SDS011;16845;48.670;9.000;2023-11-21T02:09:24;7.73;;;2.20;;
30000;SDS011;16845;48.670;9.000;2023-11-21T02:11:51;2.45;;;1.58;;
30000;SDS011;16845;48.670;9.000;2023-11-21T02:14:19;7.95;;;1.70;;
30000;SDS011;16845;48.670;9.000;2023-11-21T02:16:45;6.10;;;2.08;;
30000;SDS011;16845;48.670;9.000;2023-11-21T02:19:12;6.45;;;1.85;;
30000;SDS011;16845;48.670;9.000;2023-11-21T02:21:45;5.47;;;1.42;;
30000;SDS011;16845;48.670;9.000;2023-11-21T02:24:14;5.82;;;1.48;;
30000;SDS011;16845;48.670;9.000;2023-11-21T02:26:40;4.32;;;1.25;;
30000;SDS011;16845;48.670;9.000;2023-11-21T02:29:07;6.47;;;1.80;;
30000;SDS011;16845;48.670;9.000;2023-11-21T02:31:33;2.93;;;1.43;;
30000;SDS011;16845;48.670;9.000;2023-11-21T02:34:00;6.20;;;1.47;;
30000;SDS011;16845;48.670;9.000;2023-11-21T02:36:27;5.27;;;1.73;;
30000;SDS011;16845;48.670;9.000;2023-11-21T02:38:53;10.18;;;2.85;;
30000;SDS011;16845;48.670;9.000;2023-11-21T02:41:21;4.70;;;1.52;;
30000;SDS011;16845;48.670;9.000;2023-11-21T02:43:47;9.43;;;1.50;;
30000;SDS011;16845;48.670;9.000;2023-11-21T02:46:14;4.10;;;1.27;;
30000;SDS011;16845;48.670;9.000;2023-11-21T02:48:41;6.47;;;2.22;;
30000;SDS011;16845;48.670;9.000;2023-11-21T02:51:07;3.60;;;1.33;;
30000;SDS011;16845;48.670;9.000;2023-11-21T02:53:34;4.38;;;1.50;;
30000;SDS011;16845;48.670;9.000;2023-11-21T02:56:00;2.27;;;1.37;;
30000;SDS011;16845;48.670;9.000;2023-11-21T02:58:28;2.83;;;1.33;;
30000;SDS011;16845;48.670;9.000;2023-11-21T03:00:55;4.68;;;1.30;;
30000;SDS011;16845;48.670;9.000;2023-11-21T03:03:21;7.65;;;1.90;;
30000;SDS011;16845;48.670;9.000;2023-11-21T03:05:48;1.73;;;1.08;;
30000;SDS011;16845;48.670;9.000;2023-11-21T03:08:14;4.80;;;1.38;;
30000;SDS011;16845;48.670;9.000;2023-11-21T03:10:41;4.23;;;1.50;;
30000;SDS011;16845;48.670;9.000;2023-11-21T03:13:08;2.25;;;1.48;;
30000;SDS011;16845;48.670;9.000;2023-11-21T03:15:35;3.43;;;1.23;;
30000;SDS011;16845;48.670;9.000;2023-11-21T03:18:02;4.32;;;1.17;;
30000;SDS011;16845;48.670;9.000;2023-11-21T03:20:32;2.13;;;1.05;;
30000;SDS011;16845;48.670;9.000;2023-11-21T03:22:58;6.78;;;1.25;;
30000;SDS011;16845;48.670;9.000;2023-11-21T03:25:25;0.90;;;0.90;;
30000;SDS011;16845;48.670;9.000;2023-11-21T03:27:51;1.93;;;1.10;;
30000;SDS011;16845;48.670;9.000;2023-11-21T03:30:18;4.00;;;0.95;;
30000;SDS011;16845;48.670;9.000;2023-11-21T03:32:46;3.47;;;1.60;;
30000;SDS011;16845;48.670;9.000;2023-11-21T03:35:13;1.17;;;1.08;;
30000;SDS011;16845;48.670;9.000;2023-11-21T03:37:39;2.67;;;1.20;;
30000;SDS011;16845;48.670;9.000;2023-11-21T03:40:06;6.57;;;1.20;;
30000;SDS011;16845;48.670;9.000;2023-11-21T03:42:35;6.25;;;1.88;;
30000;SDS011;16845;48.670;9.000;2023-11-21T03:45:01;3.92;;;1.25;;
30000;SDS011;16845;48.670;9.000;2023-11-21T03:47:28;2.95;;;1.13;;
30000;SDS011;16845;48.670;9.000;2023-11-21T03:49:56;1.35;;;0.90;;
30000;SDS011;16845;48.670;9.000;2023-11-21T03:52:23;3.97;;;1.38;;
30000;SDS011;16845;48.670;9.000;2023-11-21T03:54:50;3.90;;;1.08;;
30000;SDS011;16845;48.670;9.000;2023-11-21T03:57:16;1.30;;;1.10;;
30000;SDS011;16845;48.670;9.000;2023-11-21T03:59:43;7.17;;;2.37;;
30000;SDS011;16845;48.670;9.000;2023-11-21T04:02:09;1.40;;;1.08;;
30000;SDS011;16845;48.670;9.000;2023-11-21T04:04:36;1.67;;;1.30;;
30000;SDS011;16845;48.670;9.000;2023-11-21T04:07:04;5.70;;;1.75;;
30000;SDS011;16845;48.670;9.000;2023-11-21T04:09:31;2.50;;;1.00;;
30000;SDS011;16845;48.670;9.000;2023-11-21T04:11:58;2.47;;;1.20;;
30000;SDS011;16845;48.670;9.000;2023-11-21T04:14:24;1.87;;;0.93;;
30000;SDS011;16845;48.670;9.000;2023-11-21T04:16:51;3.25;;;0.90;;
30000;SDS011;16845;48.670;9.000;2023-11-21T04:19:18;2.15;;;1.10;;
30000;SDS011;16845;48.670;9.000;2023-11-21T04:21:44;1.63;;;1.03;;
30000;SDS011;16845;48.670;9.000;2023-11-21T04:24:12;2.25;;;1.00;;
30000;SDS011;16845;48.670;9.000;2023-11-21T04:26:39;3.55;;;0.80;;
30000;SDS011;16845;48.670;9.000;2023-11-21T04:29:05;1.30;;;0.85;;
30000;SDS011;16845;48.670;9.000;2023-11-21T04:31:32;2.03;;;1.27;;
30000;SDS011;16845;48.670;9.000;2023-11-21T04:33:58;4.70;;;0.93;;
30000;SDS011;16845;48.670;9.000;2023-11-21T04:36:25;1.95;;;1.13;;
30000;SDS011;16845;48.670;9.000;2023-11-21T04:38:52;2.07;;;1.23;;
30000;SDS011;16845;48.670;9.000;2023-11-21T04:41:20;1.08;;;0.98;;
30000;SDS011;16845;48.670;9.000;2023-11-21T04:43:46;1.35;;;0.90;;
30000;SDS011;16845;48.670;9.000;2023-11-21T04:46:13;1.33;;;1.00;;
30000;SDS011;16845;48.670;9.000;2023-11-21T04:48:39;1.48;;;1.10;;
30000;SDS011;16845;48.670;9.000;2023-11-21T04:51:06;2.23;;;1.10;;
30000;SDS011;16845;48.670;9.000;2023-11-21T04:53:33;1.08;;;0.95;;
30000;SDS011;16845;48.670;9.000;2023-11-21T04:55:59;3.53;;;0.90;;
30000;SDS011;16845;48.670;9.000;2023-11-21T04:58:27;5.60;;;1.70;;
30000;SDS011;16845;48.670;9.000;2023-11-21T05:00:53;1.42;;;0.90;;
30000;SDS011;16845;48.670;9.000;2023-11-21T05:03:20;1.73;;;1.10;;
30000;SDS011;16845;48.670;9.000;2023-11-21T05:05:47;1.42;;;1.08;;
30000;SDS011;16845;48.670;9.000;2023-11-21T05:08:13;1.45;;;1.00;;
30000;SDS011;16845;48.670;9.000;2023-11-21T05:10:40;1.95;;;1.10;;
30000;SDS011;16845;48.670;9.000;2023-11-21T05:13:06;2.47;;;1.07;;
30000;SDS011;16845;48.670;9.000;2023-11-21T05:15:34;1.33;;;0.90;;
30000;SDS011;16845;48.670;9.000;2023-11-21T05:18:01;5.40;;;1.20;;
30000;SDS011;16845;48.670;9.000;2023-11-21T05:20:27;2.33;;;1.20;;
30000;SDS011;16845;48.670;9.000;2023-11-21T05:22:54;2.58;;;1.42;;
30000;SDS011;16845;48.670;9.000;2023-11-21T05:25:21;3.03;;;1.40;;
30000;SDS011;16845;48.670;9.000;2023-11-21T05:27:47;3.30;;;1.60;;
30000;SDS011;16845;48.670;9.000;2023-11-21T05:30:14;1.63;;;1.50;;
30000;SDS011;16845;48.670;9.000;2023-11-21T05:32:42;3.47;;;1.35;;
30000;SDS011;16845;48.670;9.000;2023-11-21T05:35:09;4.22;;;1.98;;
30000;SDS011;16845;48.670;9.000;2023-11-21T05:37:35;3.33;;;1.60;;
30000;SDS011;16845;48.670;9.000;2023-11-21T05:40:02;1.83;;;1.67;;
30000;SDS011;16845;48.670;9.000;2023-11-21T05:42:29;1.88;;;1.58;;
30000;SDS011;16845;48.670;9.000;2023-11-21T05:44:55;3.50;;;2.00;;
30000;SDS011;16845;48.670;9.000;2023-11-21T05:47:22;3.25;;;2.10;;
30000;SDS011;16845;48.670;9.000;2023-11-21T05:49:50;3.30;;;2.00;;
30000;SDS011;16845;48.670;9.000;2023-11-21T05:52:16;4.38;;;1.40;;
30000;SDS011;16845;48.670;9.000;2023-11-21T05:54:44;4.43;;;1.67;;
30000;SDS011;16845;48.670;9.000;2023-11-21T05:57:10;5.40;;;1.40;;
30000;SDS011;16845;48.670;9.000;2023-11-21T05:59:37;2.50;;;1.07;;
30000;SDS011;16845;48.670;9.000;2023-11-21T06:02:03;3.72;;;1.45;;
30000;SDS011;16845;48.670;9.000;2023-11-21T06:04:30;2.58;;;1.30;;
30000;SDS011;16845;48.670;9.000;2023-11-21T06:06:58;1.75;;;1.10;;
30000;SDS011;16845;48.670;9.000;2023-11-21T06:09:24;3.30;;;1.15;;
30000;SDS011;16845;48.670;9.000;2023-11-21T06:11:51;4.43;;;1.60;;
30000;SDS011;16845;48.670;9.000;2023-11-21T06:14:17;1.07;;;1.07;;
30000;SDS011;16845;48.670;9.000;2023-11-21T06:16:44;19.92;;;1.67;;
30000;SDS011;16845;48.670;9.000;2023-11-21T06:19:11;2.70;;;1.10;;
30000;SDS011;16845;48.670;9.000;2023-11-21T06:21:37;3.50;;;1.10;;
30000;SDS011;16845;48.670;9.000;2023-11-21T06:24:05;1.38;;;1.20;;
30000;SDS011;16845;48.670;9.000;2023-11-21T06:26:32;6.28;;;1.38;;
30000;SDS011;16845;48.670;9.000;2023-11-21T06:28:58;3.40;;;1.27;;
30000;SDS011;16845;48.670;9.000;2023-11-21T06:31:25;3.90;;;2.63;;
30000;SDS011;16845;48.670;9.000;2023-11-21T06:33:52;1.67;;;1.45;;
30000;SDS011;16845;48.670;9.000;2023-11-21T06:36:19;1.85;;;1.63;;
30000;SDS011;16845;48.670;9.000;2023-11-21T06:38:45;1.57;;;1.47;;
30000;SDS011;16845;48.670;9.000;2023-11-21T06:41:13;2.33;;;1.40;;
30000;SDS011;16845;48.670;9.000;2023-11-21T06:43:40;1.90;;;1.40;;
30000;SDS011;16845;48.670;9.000;2023-11-21T06:46:06;6.50;;;2.23;;
30000;SDS011;16845;48.670;9.000;2023-11-21T06:48:33;2.27;;;1.70;;
30000;SDS011;16845;48.670;9.000;2023-11-21T06:51:00;2.00;;;1.77;;
30000;SDS011;16845;48.670;9.000;2023-11-21T06:53:26;4.78;;;2.05;;
30000;SDS011;16845;48.670;9.000;2023-11-21T06:55:53;3.70;;;2.00;;
30000;SDS011;16845;48.670;9.000;2023-11-21T06:58:21;2.40;;;2.10;;
30000;SDS011;16845;48.670;9.000;2023-11-21T07:00:47;4.88;;;2.17;;
30000;SDS011;16845;48.670;9.000;2023-11-21T07:03:14;2.92;;;2.58;;
30000;SDS011;16845;48.670;9.000;2023-11-21T07:05:41;2.75;;;2.42;;
30000;SDS011;16845;48.670;9.000;2023-11-21T07:08:07;3.33;;;2.40;;
30000;SDS011;16845;48.670;9.000;2023-11-21T07:10:34;6.90;;;3.53;;
30000;SDS011;16845;48.670;9.000;2023-11-21T07:13:01;5.25;;;2.90;;
30000;SDS011;16845;48.670;9.000;2023-11-21T07:15:29;5.50;;;2.13;;
30000;SDS011;16845;48.670;9.000;2023-11-21T07:17:55;4.43;;;2.42;;
30000;SDS011;16845;48.670;9.000;2023-11-21T07:20:22;4.63;;;2.53;;
30000;SDS011;16845;48.670;9.000;2023-11-21T07:22:49;2.73;;;2.20;;
30000;SDS011;16845;48.670;9.000;2023-11-21T07:25:15;2.43;;;2.23;;
30000;SDS011;16845;48.670;9.000;2023-11-21T07:27:42;2.92;;;2.53;;
30000;SDS011;16845;48.670;9.000;2023-11-21T07:30:09;3.42;;;2.45;;
30000;SDS011;16845;48.670;9.000;2023-11-21T07:32:38;3.47;;;2.90;;
30000;SDS011;16845;48.670;9.000;2023-11-21T07:35:05;3.30;;;2.38;;
30000;SDS011;16845;48.670;9.000;2023-11-21T07:37:31;2.85;;;2.30;;
30000;SDS011;16845;48.670;9.000;2023-11-21T07:39:58;2.50;;;2.30;;
30000;SDS011;16845;48.670;9.000;2023-11-21T07:42:24;2.63;;;2.30;;
30000;SDS011;16845;48.670;9.000;2023-11-21T07:44:51;5.40;;;2.05;;
30000;SDS011;16845;48.670;9.000;2023-11-21T07:47:18;4.37;;;2.40;;
30000;SDS011;16845;48.670;9.000;2023-11-21T07:49:46;3.85;;;2.80;;
30000;SDS011;16845;48.670;9.000;2023-11-21T07:52:12;4.20;;;2.53;;
30000;SDS011;16845;48.670;9.000;2023-11-21T07:54:39;2.42;;;2.22;;
30000;SDS011;16845;48.670;9.000;2023-11-21T07:57:05;3.00;;;2.60;;
30000;SDS011;16845;48.670;9.000;2023-11-21T07:59:32;3.55;;;2.15;;
30000;SDS011;16845;48.670;9.000;2023-11-21T08:01:58;7.65;;;2.33;;
30000;SDS011;16845;48.670;9.000;2023-11-21T08:04:25;4.40;;;2.40;;
30000;SDS011;16845;48.670;9.000;2023-11-21T08:06:53;2.10;;;1.90;;
30000;SDS011;16845;48.670;9.000;2023-11-21T08:09:20;2.30;;;1.67;;
30000;SDS011;16845;48.670;9.000;2023-11-21T08:11:46;2.13;;;1.80;;
30000;SDS011;16845;48.670;9.000;2023-11-21T08:14:13;3.50;;;1.57;;
30000;SDS011;16845;48.670;9.000;2023-11-21T08:16:39;3.13;;;1.70;;
30000;SDS011;16845;48.670;9.000;2023-11-21T08:19:06;2.20;;;1.43;;
30000;SDS011;16845;48.670;9.000;2023-11-21T08:21:33;4.27;;;1.87;;
30000;SDS011;16845;48.670;9.000;2023-11-21T08:24:00;2.40;;;1.65;;
30000;SDS011;16845;48.670;9.000;2023-11-21T08:26:27;2.75;;;2.22;;
30000;SDS011;16845;48.670;9.000;2023-11-21T08:28:53;3.75;;;1.58;;
30000;SDS011;16845;48.670;9.000;2023-11-21T08:31:23;2.50;;;1.57;;
30000;SDS011;16845;48.670;9.000;2023-11-21T08:33:51;4.90;;;1.15;;
30000;SDS011;16845;48.670;9.000;2023-11-21T08:36:17;4.47;;;1.38;;
30000;SDS011;16845;48.670;9.000;2023-11-21T08:38:44;5.18;;;1.23;;
30000;SDS011;16845;48.670;9.000;2023-11-21T08:41:11;3.23;;;1.20;;
30000;SDS011;16845;48.670;9.000;2023-11-21T08:43:38;2.08;;;1.27;;
30000;SDS011;16845;48.670;9.000;2023-11-21T08:46:05;2.03;;;1.40;;
30000;SDS011;16845;48.670;9.000;2023-11-21T08:48:32;3.33;;;1.63;;
30000;SDS011;16845;48.670;9.000;2023-11-21T08:50:58;5.68;;;1.48;;
30000;SDS011;16845;48.670;9.000;2023-11-21T08:53:25;1.98;;;1.25;;
30000;SDS011;16845;48.670;9.000;2023-11-21T08:55:51;4.00;;;1.40;;
30000;SDS011;16845;48.670;9.000;2023-11-21T08:58:19;4.03;;;2.70;;
30000;SDS011;16845;48.670;9.000;2023-11-21T09:00:46;3.15;;;1.40;;
30000;SDS011;16845;48.670;9.000;2023-11-21T09:03:12;1.58;;;1.30;;
30000;SDS011;16845;48.670;9.000;2023-11-21T09:05:39;2.07;;;1.27;;
30000;SDS011;16845;48.670;9.000;2023-11-21T09:08:05;5.97;;;1.33;;
30000;SDS011;16845;48.670;9.000;2023-11-21T09:10:32;2.33;;;1.50;;
30000;SDS011;16845;48.670;9.000;2023-11-21T09:12:59;1.40;;;1.30;;
30000;SDS011;16845;48.670;9.000;2023-11-21T09:15:27;2.35;;;1.27;;
30000;SDS011;16845;48.670;9.000;2023-11-21T09:17:53;1.38;;;1.10;;
30000;SDS011;16845;48.670;9.000;2023-11-21T09:20:20;4.72;;;1.50;;
30000;SDS011;16845;48.670;9.000;2023-11-21T09:22:46;2.47;;;1.58;;
30000;SDS011;16845;48.670;9.000;2023-11-21T09:25:13;2.27;;;1.40;;
30000;SDS011;16845;48.670;9.000;2023-11-21T09:27:40;1.30;;;1.20;;
30000;SDS011;16845;48.670;9.000;2023-11-21T09:30:07;3.47;;;1.50;;
30000;SDS011;16845;48.670;9.000;2023-11-21T09:32:35;1.80;;;1.48;;
30000;SDS011;16845;48.670;9.000;2023-11-21T09:35:02;1.48;;;1.10;;
30000;SDS011;16845;48.670;9.000;2023-11-21T09:37:29;1.55;;;1.40;;
30000;SDS011;16845;48.670;9.000;2023-11-21T09:39:56;1.48;;;1.10;;
30000;SDS011;16845;48.670;9.000;2023-11-21T09:42:23;2.10;;;1.55;;
30000;SDS011;16845;48.670;9.000;2023-11-21T09:44:54;2.00;;;1.25;;
30000;SDS011;16845;48.670;9.000;2023-11-21T09:47:29;4.28;;;1.13;;
30000;SDS011;16845;48.670;9.000;2023-11-21T09:49:57;2.08;;;1.20;;
30000;SDS011;16845;48.670;9.000;2023-11-21T09:52:28;2.78;;;1.17;;
30000;SDS011;16845;48.670;9.000;2023-11-21T09:54:55;7.25;;;1.17;;
30000;SDS011;16845;48.670;9.000;2023-11-21T09:57:22;5.10;;;1.90;;
30000;SDS011;16845;48.670;9.000;2023-11-21T10:02:17;2.60;;;1.33;;
30000;SDS011;16845;48.670;9.000;2023-11-21T10:04:44;3.85;;;1.15;;
30000;SDS011;16845;48.670;9.000;2023-11-21T10:07:12;1.67;;;1.30;;
30000;SDS011;16845;48.670;9.000;2023-11-21T10:09:42;2.00;;;1.40;;
30000;SDS011;16845;48.670;9.000;2023-11-21T10:12:09;2.03;;;1.83;;
30000;SDS011;16845;48.670;9.000;2023-11-21T10:14:37;4.57;;;2.03;;
30000;SDS011;16845;48.670;9.000;2023-11-21T10:17:07;1.75;;;1.55;;
30000;SDS011;16845;48.670;9.000;2023-11-21T10:19:36;4.85;;;1.92;;
30000;SDS011;16845;48.670;9.000;2023-11-21T10:22:03;2.55;;;1.80;;
30000;SDS011;16845;48.670;9.000;2023-11-21T10:24:31;2.10;;;1.63;;
30000;SDS011;16845;48.670;9.000;2023-11-21T10:27:13;5.80;;;1.38;;
30000;SDS011;16845;48.670;9.000;2023-11-21T10:29:40;6.32;;;1.95;;
30000;SDS011;16845;48.670;9.000;2023-11-21T10:32:07;2.83;;;1.73;;
30000;SDS011;16845;48.670;9.000;2023-11-21T10:34:33;2.20;;;2.00;;
30000;SDS011;16845;48.670;9.000;2023-11-21T10:37:02;2.45;;;1.77;;
30000;SDS011;16845;48.670;9.000;2023-11-21T10:39:39;2.45;;;2.00;;
30000;SDS011;16845;48.670;9.000;2023-11-21T10:42:07;1.85;;;1.58;;
30000;SDS011;16845;48.670;9.000;2023-11-21T10:44:34;5.95;;;2.72;;
30000;SDS011;16845;48.670;9.000;2023-11-21T10:47:01;3.63;;;2.45;;
30000;SDS011;16845;48.670;9.000;2023-11-21T10:49:28;5.93;;;1.98;;
30000;SDS011;16845;48.670;9.000;2023-11-21T10:51:55;2.37;;;2.13;;
30000;SDS011;16845;48.670;9.000;2023-11-21T10:56:53;4.72;;;2.30;;
30000;SDS011;16845;48.670;9.000;2023-11-21T10:59:22;5.38;;;2.05;;
30000;SDS011;16845;48.670;9.000;2023-11-21T11:01:49;2.80;;;2.43;;
30000;SDS011;16845;48.670;9.000;2023-11-21T11:04:18;2.38;;;2.00;;
30000;SDS011;16845;48.670;9.000;2023-11-21T11:06:45;3.17;;;1.83;;
30000;SDS011;16845;48.670;9.000;2023-11-21T11:09:17;5.60;;;2.10;;
30000;SDS011;16845;48.670;9.000;2023-11-21T11:11:43;3.17;;;2.60;;
30000;SDS011;16845;48.670;9.000;2023-11-21T11:16:40;2.38;;;2.08;;
30000;SDS011;16845;48.670;9.000;2023-11-21T11:19:07;3.05;;;1.95;;
30000;SDS011;16845;48.670;9.000;2023-11-21T11:21:39;2.90;;;2.53;;
30000;SDS011;16845;48.670;9.000;2023-11-21T11:24:20;3.00;;;2.13;;
30000;SDS011;16845;48.670;9.000;2023-11-21T11:27:01;3.58;;;2.40;;
30000;SDS011;16845;48.670;9.000;2023-11-21T11:29:39;3.70;;;2.80;;
30000;SDS011;16845;48.670;9.000;2023-11-21T11:32:11;7.28;;;2.65;;
30000;SDS011;16845;48.670;9.000;2023-11-21T11:34:44;2.35;;;2.15;;
30000;SDS011;16845;48.670;9.000;2023-11-21T11:37:14;4.22;;;2.30;;
30000;SDS011;16845;48.670;9.000;2023-11-21T11:39:41;2.67;;;2.20;;
30000;SDS011;16845;48.670;9.000;2023-11-21T11:42:10;4.80;;;2.00;;
30000;SDS011;16845;48.670;9.000;2023-11-21T11:44:52;3.55;;;2.60;;
30000;SDS011;16845;48.670;9.000;2023-11-21T11:47:20;3.22;;;2.03;;
30000;SDS011;16845;48.670;9.000;2023-11-21T11:49:57;3.00;;;2.15;;
30000;SDS011;16845;48.670;9.000;2023-11-21T11:52:36;3.22;;;1.98;;
30000;SDS011;16845;48.670;9.000;2023-11-21T11:55:05;4.65;;;2.53;;
30000;SDS011;16845;48.670;9.000;2023-11-21T11:57:33;4.50;;;2.75;;
30000;SDS011;16845;48.670;9.000;2023-11-21T12:00:09;2.90;;;2.33;;
30000;SDS011;16845;48.670;9.000;2023-11-21T12:02:37;4.93;;;2.65;;
30000;SDS011;16845;48.670;9.000;2023-11-21T12:05:07;2.58;;;2.38;;
30000;SDS011;16845;48.670;9.000;2023-11-21T12:07:45;2.90;;;2.65;;
30000;SDS011;16845;48.670;9.000;2023-11-21T12:10:14;7.07;;;2.83;;
30000;SDS011;16845;48.670;9.000;2023-11-21T12:15:10;5.07;;;3.72;;
30000;SDS011;16845;48.670;9.000;2023-11-21T12:17:37;3.88;;;3.42;;
30000;SDS011;16845;48.670;9.000;2023-11-21T12:20:04;5.18;;;3.35;;
30000;SDS011;16845;48.670;9.000;2023-11-21T12:22:32;4.00;;;3.00;;
30000;SDS011;16845;48.670;9.000;2023-11-21T12:24:59;4.78;;;3.15;;
30000;SDS011;16845;48.670;9.000;2023-11-21T12:27:27;7.22;;;4.20;;
30000;SDS011;16845;48.670;9.000;2023-11-21T12:29:53;5.17;;;4.40;;
30000;SDS011;16845;48.670;9.000;2023-11-21T12:32:22;5.53;;;4.65;;
30000;SDS011;16845;48.670;9.000;2023-11-21T12:34:48;7.15;;;5.38;;
30000;SDS011;16845;48.670;9.000;2023-11-21T12:37:15;8.03;;;4.80;;
30000;SDS011;16845;48.670;9.000;2023-11-21T12:39:42;7.57;;;5.72;;
30000;SDS011;16845;48.670;9.000;2023-11-21T12:42:08;8.93;;;5.10;;
30000;SDS011;16845;48.670;9.000;2023-11-21T12:44:35;6.88;;;4.95;;
30000;SDS011;16845;48.670;9.000;2023-11-21T12:47:02;9.67;;;5.50;;
30000;SDS011;16845;48.670;9.000;2023-11-21T12:49:30;5.78;;;4.40;;
30000;SDS011;16845;48.670;9.000;2023-11-21T12:51:57;4.75;;;3.75;;
30000;SDS011;16845;48.670;9.000;2023-11-21T12:54:23;3.08;;;2.78;;
30000;SDS011;16845;48.670;9.000;2023-11-21T12:56:50;3.40;;;2.83;;
30000;SDS011;16845;48.670;9.000;2023-11-21T12:59:16;3.67;;;2.95;;
30000;SDS011;16845;48.670;9.000;2023-11-21T13:01:43;5.13;;;2.72;;
30000;SDS011;16845;48.670;9.000;2023-11-21T13:04:09;3.33;;;3.03;;
30000;SDS011;16845;48.670;9.000;2023-11-21T13:06:37;3.55;;;3.25;;
30000;SDS011;16845;48.670;9.000;2023-11-21T13:09:04;2.78;;;2.58;;
30000;SDS011;16845;48.670;9.000;2023-11-21T13:11:33;3.72;;;3.05;;
30000;SDS011;16845;48.670;9.000;2023-11-21T13:14:00;4.07;;;3.67;;
30000;SDS011;16845;48.670;9.000;2023-11-21T13:16:28;3.13;;;2.80;;
30000;SDS011;16845;48.670;9.000;2023-11-21T13:18:55;5.57;;;4.57;;
30000;SDS011;16845;48.670;9.000;2023-11-21T13:21:21;4.35;;;3.95;;
30000;SDS011;16845;48.670;9.000;2023-11-21T13:23:49;3.72;;;3.42;;
30000;SDS011;16845;48.670;9.000;2023-11-21T13:26:16;7.07;;;3.45;;
30000;SDS011;16845;48.670;9.000;2023-11-21T13:28:42;7.72;;;3.75;;
30000;SDS011;16845;48.670;9.000;2023-11-21T13:31:09;5.10;;;4.40;;
30000;SDS011;16845;48.670;9.000;2023-11-21T13:33:37;8.18;;;4.65;;
30000;SDS011;16845;48.670;9.000;2023-11-21T13:36:04;6.90;;;4.80;;
30000;SDS011;16845;48.670;9.000;2023-11-21T13:38:31;8.90;;;6.03;;
30000;SDS011;16845;48.670;9.000;2023-11-21T13:40:59;9.75;;;5.05;;
30000;SDS011;16845;48.670;9.000;2023-11-21T13:43:26;8.25;;;5.53;;
30000;SDS011;16845;48.670;9.000;2023-11-21T13:45:53;7.93;;;5.13;;
30000;SDS011;16845;48.670;9.000;2023-11-21T13:48:19;9.10;;;5.60;;
30000;SDS011;16845;48.670;9.000;2023-11-21T13:50:46;6.35;;;4.63;;
30000;SDS011;16845;48.670;9.000;2023-11-21T13:53:12;7.18;;;4.95;;
30000;SDS011;16845;48.670;9.000;2023-11-21T13:55:39;5.10;;;1.73;;
30000;SDS011;16845;48.670;9.000;2023-11-21T13:58:07;2.10;;;1.90;;
30000;SDS011;16845;48.670;9.000;2023-11-21T14:00:33;4.72;;;1.90;;
30000;SDS011;16845;48.670;9.000;2023-11-21T14:03:00;1.60;;;1.45;;
30000;SDS011;16845;48.670;9.000;2023-11-21T14:05:27;4.90;;;1.70;;
30000;SDS011;16845;48.670;9.000;2023-11-21T14:07:53;1.97;;;1.87;;
30000;SDS011;16845;48.670;9.000;2023-11-21T14:10:20;6.73;;;2.23;;
30000;SDS011;16845;48.670;9.000;2023-11-21T14:12:46;2.38;;;1.63;;
30000;SDS011;16845;48.670;9.000;2023-11-21T14:15:14;2.47;;;1.65;;
30000;SDS011;16845;48.670;9.000;2023-11-21T14:17:41;2.15;;;1.90;;
30000;SDS011;16845;48.670;9.000;2023-11-21T14:20:08;1.83;;;1.63;;
30000;SDS011;16845;48.670;9.000;2023-11-21T14:25:02;6.03;;;1.52;;
30000;SDS011;16845;48.670;9.000;2023-11-21T14:27:28;2.07;;;1.60;;
30000;SDS011;16845;48.670;9.000;2023-11-21T14:29:55;2.78;;;1.83;;
30000;SDS011;16845;48.670;9.000;2023-11-21T14:32:23;1.90;;;1.77;;
30000;SDS011;16845;48.670;9.000;2023-11-21T14:34:49;1.75;;;1.65;;
30000;SDS011;16845;48.670;9.000;2023-11-21T14:37:16;2.08;;;1.88;;
30000;SDS011;16845;48.670;9.000;2023-11-21T14:39:42;2.10;;;1.90;;
30000;SDS011;16845;48.670;9.000;2023-11-21T14:42:09;4.82;;;2.50;;
30000;SDS011;16845;48.670;9.000;2023-11-21T14:44:36;3.60;;;2.63;;
30000;SDS011;16845;48.670;9.000;2023-11-21T14:47:02;2.65;;;2.45;;
30000;SDS011;16845;48.670;9.000;2023-11-21T14:49:30;2.35;;;2.15;;
30000;SDS011;16845;48.670;9.000;2023-11-21T14:51:57;3.03;;;2.65;;
30000;SDS011;16845;48.670;9.000;2023-11-21T14:54:23;3.17;;;2.72;;
30000;SDS011;16845;48.670;9.000;2023-11-21T14:56:50;4.75;;;2.75;;
30000;SDS011;16845;48.670;9.000;2023-11-21T14:59:16;4.60;;;2.92;;
30000;SDS011;16845;48.670;9.000;2023-11-21T15:01:43;3.80;;;3.30;;
30000;SDS011;16845;48.670;9.000;2023-11-21T15:04:10;6.27;;;3.40;;